Terminal Aerodrome Forecast
Issued by NWS

Home | Current Version | Previous Version | Text Only | Print | Product List | Glossary On
Versions: 1 2 3 4 5 6 7 8 9 10 11 12 13
000
FTUS44 KMAF 291700
TAFPEQ
TAF
KPEQ 291720Z 2918/3018 32005KT P6SM SCT070 SCT250
     FM300100 05005KT P6SM FEW200
     FM301200 VRB03KT P6SM FEW250
     FM301600 09004KT P6SM SCT060=

USA.gov is the U.S. government's official web portal to all federal, state and local government web resources and services.